Time;durP1;ratioP1;P1;durP2;ratioP2;P2;SDS_P1;SDS_P2;PMS_P1;PMS_P2;Temp;Humidity;BMP_temperature;BMP_pressure;BME280_temperature;BME280_humidity;BME280_pressure;Samples;Min_cycle;Max_cycle;Signal;HPM_P1;HPM_P2
2022/09/18 00:01:19;;;;;;;9.87;3.97;;;11.80;99.90;;;;;;5073005;28;20176;-68
2022/09/18 00:03:46;;;;;;;5.67;3.90;;;11.80;99.90;;;;;;5072767;28;20555;-68
2022/09/18 00:06:17;;;;;;;8.00;3.60;;;11.80;99.90;;;;;;5072679;28;20173;-68
2022/09/18 00:08:44;;;;;;;4.80;3.60;;;11.80;99.90;;;;;;5072629;28;20180;-69
2022/09/18 00:11:11;;;;;;;7.03;3.57;;;11.80;99.90;;;;;;5072930;28;20180;-69
2022/09/18 00:13:38;;;;;;;6.87;3.90;;;11.80;99.90;;;;;;5072600;28;20223;-69
2022/09/18 00:16:06;;;;;;;9.80;3.57;;;11.80;99.90;;;;;;5072536;28;20228;-71
2022/09/18 00:18:32;;;;;;;8.17;3.40;;;11.80;99.90;;;;;;5072907;28;20259;-70
2022/09/18 00:21:05;;;;;;;8.43;3.50;;;11.80;99.90;;;;;;5075749;28;20730;-69
2022/09/18 00:23:31;;;;;;;7.87;3.10;;;11.90;99.90;;;;;;5076481;28;20261;-70
2022/09/18 00:25:57;;;;;;;8.50;3.33;;;11.90;99.90;;;;;;5076484;28;20643;-69
2022/09/18 00:28:22;;;;;;;11.37;3.50;;;11.90;99.90;;;;;;5076504;28;20173;-69
2022/09/18 00:30:48;;;;;;;5.70;3.53;;;11.90;99.90;;;;;;5076396;28;20177;-69
2022/09/18 00:33:13;;;;;;;5.60;3.70;;;12.00;99.90;;;;;;5076097;28;20235;-68
2022/09/18 00:35:42;;;;;;;7.07;3.47;;;12.00;99.90;;;;;;5076084;28;20191;-68
2022/09/18 00:38:08;;;;;;;7.00;3.70;;;12.00;99.90;;;;;;5076127;28;20222;-68
2022/09/18 00:40:34;;;;;;;7.77;3.27;;;12.00;99.90;;;;;;5076353;28;20172;-69
2022/09/18 00:43:21;;;;;;;9.60;3.77;;;12.10;99.90;;;;;;5076104;28;20694;-68
2022/09/18 00:45:56;;;;;;;8.00;3.77;;;12.20;99.90;;;;;;5076174;28;20176;-69
2022/09/18 00:48:26;;;;;;;9.20;3.47;;;12.10;99.90;;;;;;5076053;28;20176;-69
2022/09/18 00:50:52;;;;;;;5.73;3.53;;;12.20;99.90;;;;;;5076368;28;20235;-69
2022/09/18 00:53:18;;;;;;;11.10;3.93;;;12.20;99.90;;;;;;5076056;28;20209;-69
2022/09/18 00:55:45;;;;;;;11.83;3.30;;;12.20;99.90;;;;;;5075945;28;20183;-70
2022/09/18 00:58:11;;;;;;;6.23;3.20;;;12.20;99.90;;;;;;5075733;28;20632;-69
2022/09/18 01:00:37;;;;;;;5.20;3.27;;;12.20;99.90;;;;;;5076068;28;20248;-68
2022/09/18 01:03:03;;;;;;;5.03;3.17;;;12.20;99.90;;;;;;5075354;28;21052;-68
2022/09/18 01:05:55;;;;;;;6.77;3.13;;;12.10;99.90;;;;;;5075733;28;20712;-68
2022/09/18 01:08:24;;;;;;;10.33;3.33;;;12.00;99.90;;;;;;5075779;28;20176;-68
2022/09/18 01:10:59;;;;;;;6.63;3.40;;;11.90;99.90;;;;;;5075598;28;20200;-68
2022/09/18 01:13:28;;;;;;;10.03;3.50;;;11.90;99.90;;;;;;5075564;28;20212;-67
2022/09/18 01:16:10;;;;;;;7.00;3.13;;;11.80;99.90;;;;;;5074321;28;20560;-68
2022/09/18 01:19:24;;;;;;;7.93;3.53;;;11.70;99.90;;;;;;5075395;28;20165;-69
2022/09/18 01:22:19;;;;;;;4.20;3.10;;;11.60;99.90;;;;;;5033319;28;20170;-68
2022/09/18 01:25:02;;;;;;;8.53;3.00;;;11.60;99.90;;;;;;5033479;28;20272;-67
2022/09/18 01:27:40;;;;;;;7.00;3.20;;;11.60;99.90;;;;;;5033627;28;20221;-67
2022/09/18 01:30:11;;;;;;;6.23;3.30;;;11.50;99.90;;;;;;5033023;28;20192;-67
2022/09/18 01:32:54;;;;;;;7.83;3.17;;;11.50;99.90;;;;;;5031893;28;20249;-67
2022/09/18 01:35:30;;;;;;;5.50;3.13;;;11.50;99.90;;;;;;5033065;28;20178;-69
2022/09/18 01:38:04;;;;;;;5.50;2.90;;;11.50;99.90;;;;;;5033170;28;20273;-67
2022/09/18 01:40:39;;;;;;;6.30;3.30;;;11.40;99.90;;;;;;5032968;28;20186;-68
2022/09/18 01:43:08;;;;;;;3.80;2.97;;;11.30;99.90;;;;;;5033020;28;20267;-68
2022/09/18 01:45:42;;;;;;;4.73;2.93;;;11.30;99.90;;;;;;5032889;28;20170;-67
2022/09/18 01:48:13;;;;;;;6.10;2.90;;;11.30;99.90;;;;;;5032650;28;20209;-69
2022/09/18 01:50:43;;;;;;;8.27;2.77;;;11.40;99.90;;;;;;5032804;28;20316;-68
2022/09/18 01:53:23;;;;;;;6.10;2.60;;;11.30;99.90;;;;;;5032540;28;20214;-68
2022/09/18 01:55:59;;;;;;;10.87;2.87;;;11.30;99.90;;;;;;5057835;28;20192;-69
2022/09/18 01:58:26;;;;;;;6.47;2.50;;;11.30;99.90;;;;;;5074806;28;20200;-68
2022/09/18 02:00:59;;;;;;;9.03;2.70;;;11.30;99.90;;;;;;5074376;28;20179;-68
2022/09/18 02:03:37;;;;;;;6.00;2.77;;;11.30;99.90;;;;;;5074428;28;20179;-68
2022/09/18 02:06:31;;;;;;;4.63;2.50;;;11.30;99.90;;;;;;5074619;28;20218;-67
2022/09/18 02:09:00;;;;;;;6.83;2.50;;;11.30;99.90;;;;;;5074524;28;20196;-68
2022/09/18 02:11:27;;;;;;;7.33;2.40;;;11.40;99.90;;;;;;5074506;28;20255;-68
2022/09/18 02:14:07;;;;;;;2.70;2.20;;;11.50;99.90;;;;;;5074078;28;20176;-68
2022/09/18 02:16:42;;;;;;;5.17;2.87;;;11.50;99.90;;;;;;5073910;28;20231;-69
2022/09/18 02:19:31;;;;;;;6.03;2.50;;;11.60;99.90;;;;;;5074525;28;20667;-69
2022/09/18 02:22:00;;;;;;;4.90;2.43;;;11.70;99.90;;;;;;5074517;28;20206;-69
2022/09/18 02:24:31;;;;;;;4.87;2.43;;;11.70;99.90;;;;;;5073980;28;20173;-69
2022/09/18 02:26:58;;;;;;;4.23;2.00;;;11.70;99.90;;;;;;5074416;28;20168;-69
2022/09/18 02:29:24;;;;;;;4.60;2.60;;;11.60;99.90;;;;;;5074373;28;20184;-69
2022/09/18 02:31:50;;;;;;;4.07;2.10;;;11.50;99.90;;;;;;5073909;28;20196;-69
2022/09/18 02:34:18;;;;;;;8.10;2.20;;;11.50;99.90;;;;;;5072959;28;20173;-68
2022/09/18 02:37:11;;;;;;;5.30;2.13;;;11.50;99.90;;;;;;5073881;28;20164;-68
2022/09/18 02:40:15;;;;;;;5.10;2.33;;;11.50;99.90;;;;;;5073852;28;20172;-68
2022/09/18 02:43:12;;;;;;;5.73;2.47;;;11.40;99.90;;;;;;5073778;28;20636;-69
2022/09/18 02:46:05;;;;;;;3.93;2.50;;;11.40;99.90;;;;;;5073556;28;20196;-68
2022/09/18 02:48:49;;;;;;;8.43;2.40;;;11.40;99.90;;;;;;5073961;28;20165;-68
2022/09/18 02:51:29;;;;;;;3.07;2.77;;;11.30;99.90;;;;;;5073747;28;20172;-68
2022/09/18 02:54:00;;;;;;;4.10;2.43;;;11.20;99.90;;;;;;5073813;28;20196;-68
2022/09/18 02:56:34;;;;;;;5.70;3.00;;;11.20;99.90;;;;;;5073731;28;20221;-68
2022/09/18 02:59:19;;;;;;;3.80;2.30;;;11.20;99.90;;;;;;5073100;28;20204;-68
2022/09/18 03:01:46;;;;;;;6.60;2.50;;;11.10;99.90;;;;;;5073515;28;20176;-68
2022/09/18 03:04:14;;;;;;;6.23;2.33;;;11.10;99.90;;;;;;5073488;28;20176;-68
2022/09/18 03:06:40;;;;;;;4.20;2.80;;;11.20;99.90;;;;;;5073564;28;20658;-68
2022/09/18 03:09:06;;;;;;;3.60;2.33;;;11.20;99.90;;;;;;5073540;28;20252;-68
2022/09/18 03:11:32;;;;;;;5.30;2.73;;;11.10;99.90;;;;;;5073344;28;20164;-68
2022/09/18 03:13:57;;;;;;;4.77;2.30;;;11.10;99.90;;;;;;5072940;28;20189;-70
2022/09/18 03:16:23;;;;;;;7.13;2.60;;;11.10;99.90;;;;;;5073041;28;20228;-68
2022/09/18 03:18:49;;;;;;;4.03;2.40;;;11.10;99.90;;;;;;5072746;28;20522;-68
2022/09/18 03:21:14;;;;;;;3.90;2.10;;;11.10;99.90;;;;;;5073208;28;20259;-69
2022/09/18 03:23:40;;;;;;;3.70;2.37;;;11.10;99.90;;;;;;5073154;28;20651;-68
2022/09/18 03:26:05;;;;;;;7.47;2.63;;;11.10;99.90;;;;;;5073015;28;20168;-68
2022/09/18 03:28:31;;;;;;;4.20;2.40;;;11.10;99.90;;;;;;5072876;28;20172;-68
2022/09/18 03:30:57;;;;;;;9.97;2.47;;;11.10;99.90;;;;;;5073127;28;20183;-68
2022/09/18 03:33:23;;;;;;;4.67;2.70;;;11.10;99.90;;;;;;5072709;28;20208;-68
2022/09/18 03:35:48;;;;;;;5.57;2.33;;;11.10;99.90;;;;;;5072825;28;20218;-68
2022/09/18 03:38:14;;;;;;;4.90;2.70;;;11.10;99.90;;;;;;5072922;28;20204;-68
2022/09/18 03:40:43;;;;;;;4.63;2.87;;;11.10;99.90;;;;;;5073024;28;20176;-68
2022/09/18 03:43:09;;;;;;;4.97;2.23;;;11.00;99.90;;;;;;5072456;28;20176;-68
2022/09/18 03:45:35;;;;;;;4.13;2.47;;;11.10;99.90;;;;;;5071668;28;20164;-67
2022/09/18 03:48:02;;;;;;;5.27;2.50;;;11.20;99.90;;;;;;5072930;28;20172;-68
2022/09/18 03:50:28;;;;;;;10.20;2.63;;;11.20;99.90;;;;;;5072941;28;20196;-67
2022/09/18 03:52:54;;;;;;;5.53;2.50;;;11.20;99.90;;;;;;5072491;28;20212;-68
2022/09/18 03:55:21;;;;;;;5.73;2.80;;;11.20;99.90;;;;;;5075208;28;20161;-69
2022/09/18 03:57:47;;;;;;;8.47;2.60;;;11.20;99.90;;;;;;5076481;28;20180;-68
2022/09/18 04:00:14;;;;;;;4.43;2.60;;;11.20;99.90;;;;;;5076726;28;20287;-68
2022/09/18 04:02:41;;;;;;;3.20;2.50;;;11.20;99.90;;;;;;5076691;28;20655;-69
2022/09/18 04:05:07;;;;;;;3.60;2.53;;;11.30;99.90;;;;;;5076300;28;20629;-68
2022/09/18 04:07:32;;;;;;;6.77;2.93;;;11.30;99.90;;;;;;5076469;28;20295;-68
2022/09/18 04:09:58;;;;;;;5.07;2.50;;;11.30;99.90;;;;;;5076139;28;20258;-68
2022/09/18 04:12:23;;;;;;;6.40;2.90;;;11.40;99.90;;;;;;5076145;28;20215;-68
2022/09/18 04:14:49;;;;;;;4.93;2.43;;;11.50;99.90;;;;;;5075154;28;20177;-69
2022/09/18 04:17:15;;;;;;;3.97;2.47;;;11.50;99.90;;;;;;5076317;28;20318;-69
2022/09/18 04:19:41;;;;;;;4.93;2.70;;;11.50;98.70;;;;;;5076489;28;20628;-68
2022/09/18 04:22:06;;;;;;;7.17;2.80;;;11.60;97.20;;;;;;5076216;28;20211;-68
2022/09/18 04:24:33;;;;;;;2.97;2.50;;;11.60;92.40;;;;;;5076226;28;20218;-68
2022/09/18 04:26:59;;;;;;;5.17;2.63;;;11.60;92.00;;;;;;5076046;28;20629;-69
2022/09/18 04:29:24;;;;;;;8.57;2.83;;;11.60;90.30;;;;;;5075607;28;20169;-68
2022/09/18 04:31:50;;;;;;;6.53;2.73;;;11.60;92.80;;;;;;5076282;28;20292;-68
2022/09/18 04:34:16;;;;;;;3.83;2.60;;;11.50;95.60;;;;;;5076238;28;20207;-68
2022/09/18 04:36:41;;;;;;;3.40;2.40;;;11.40;95.20;;;;;;5076233;28;20181;-67
2022/09/18 04:39:07;;;;;;;3.17;2.40;;;11.40;93.00;;;;;;5075908;28;20552;-67
2022/09/18 04:41:33;;;;;;;5.00;2.60;;;11.30;93.40;;;;;;5075549;28;20200;-67
2022/09/18 04:43:58;;;;;;;3.93;2.77;;;11.30;94.90;;;;;;5075911;28;20496;-68
2022/09/18 04:46:24;;;;;;;3.60;2.60;;;11.30;95.00;;;;;;5075650;28;20172;-68
2022/09/18 04:48:49;;;;;;;2.93;2.63;;;11.20;94.80;;;;;;5075886;28;20180;-68
2022/09/18 04:51:15;;;;;;;3.37;2.40;;;11.10;96.80;;;;;;5075505;28;20161;-68
2022/09/18 04:53:41;;;;;;;3.73;2.57;;;11.00;99.20;;;;;;5075805;28;20244;-67
2022/09/18 04:56:06;;;;;;;5.33;2.70;;;10.90;99.90;;;;;;5075284;28;20172;-69
2022/09/18 04:58:32;;;;;;;4.70;2.50;;;10.90;99.90;;;;;;5075215;28;20292;-68
2022/09/18 05:00:58;;;;;;;4.20;2.47;;;10.90;99.90;;;;;;5075742;28;20173;-68
2022/09/18 05:03:23;;;;;;;4.10;2.73;;;10.90;98.50;;;;;;5075532;28;20177;-68
2022/09/18 05:05:50;;;;;;;3.70;2.60;;;10.80;99.90;;;;;;5074317;28;20656;-68
2022/09/18 05:08:16;;;;;;;6.90;2.50;;;10.80;99.90;;;;;;5075606;28;20624;-68
2022/09/18 05:10:42;;;;;;;2.93;2.47;;;10.80;98.70;;;;;;5107595;28;20255;-68
2022/09/18 05:13:08;;;;;;;5.67;2.67;;;10.90;98.70;;;;;;5074942;28;20295;-68
2022/09/18 05:15:34;;;;;;;4.07;2.50;;;10.90;99.30;;;;;;5075190;28;20172;-69
2022/09/18 05:18:05;;;;;;;4.83;2.60;;;10.90;97.00;;;;;;5074837;28;20177;-68
2022/09/18 05:20:33;;;;;;;8.37;2.37;;;11.00;96.40;;;;;;5075415;28;20176;-68
2022/09/18 05:22:59;;;;;;;5.33;2.70;;;11.00;96.30;;;;;;5074858;28;20168;-68
2022/09/18 05:25:27;;;;;;;4.20;2.63;;;11.00;95.20;;;;;;5074665;28;20168;-68
2022/09/18 05:27:58;;;;;;;8.80;2.70;;;11.00;94.30;;;;;;5075350;28;20173;-68
2022/09/18 05:30:25;;;;;;;3.80;2.37;;;11.10;94.00;;;;;;5075123;28;20652;-68
2022/09/18 05:32:58;;;;;;;4.10;2.40;;;11.10;90.00;;;;;;5075159;28;20261;-68
2022/09/18 05:35:26;;;;;;;5.20;2.40;;;11.00;86.70;;;;;;5075052;28;20177;-68
2022/09/18 05:37:53;;;;;;;2.50;2.27;;;11.10;86.60;;;;;;5074873;28;20165;-68
2022/09/18 05:40:20;;;;;;;3.27;2.00;;;11.10;85.00;;;;;;5074358;28;20225;-67
2022/09/18 05:42:46;;;;;;;4.70;2.30;;;11.10;86.70;;;;;;5074686;28;20223;-68
2022/09/18 05:45:13;;;;;;;5.23;2.47;;;11.10;85.30;;;;;;5074727;28;20168;-68
2022/09/18 05:47:39;;;;;;;8.40;2.50;;;11.20;82.00;;;;;;5074894;28;20192;-69
2022/09/18 05:50:06;;;;;;;4.33;2.20;;;11.20;75.60;;;;;;5074545;28;20169;-68
2022/09/18 05:52:32;;;;;;;3.50;2.10;;;11.20;75.90;;;;;;5074307;28;20227;-70
2022/09/18 05:54:58;;;;;;;2.53;2.20;;;11.10;78.60;;;;;;5073829;28;20632;-69
2022/09/18 05:57:24;;;;;;;4.17;2.10;;;11.10;78.90;;;;;;5073994;28;20172;-70
2022/09/18 05:59:50;;;;;;;4.03;2.80;;;11.10;78.30;;;;;;5074408;28;20220;-69
2022/09/18 06:02:15;;;;;;;3.23;2.37;;;11.10;78.90;;;;;;5074924;28;20204;-68
2022/09/18 06:04:41;;;;;;;4.47;2.90;;;11.20;77.80;;;;;;5074397;28;20566;-69
2022/09/18 06:07:06;;;;;;;3.30;2.47;;;11.30;73.00;;;;;;5074225;28;20247;-68
2022/09/18 06:09:32;;;;;;;6.87;2.67;;;11.30;77.00;;;;;;5073850;28;20264;-68
2022/09/18 06:11:58;;;;;;;3.37;2.40;;;11.30;74.90;;;;;;5073555;28;20206;-68
2022/09/18 06:14:23;;;;;;;6.30;2.20;;;11.30;82.10;;;;;;5073997;28;20518;-69
2022/09/18 06:16:49;;;;;;;2.30;2.10;;;11.30;74.10;;;;;;5073354;28;20303;-69
2022/09/18 06:19:15;;;;;;;4.43;2.30;;;11.40;72.90;;;;;;5073654;28;20259;-69
2022/09/18 06:21:40;;;;;;;4.47;2.30;;;11.60;69.00;;;;;;5073829;28;20177;-70
2022/09/18 06:24:06;;;;;;;3.97;2.40;;;11.60;76.70;;;;;;5073616;28;20255;-69
2022/09/18 06:26:32;;;;;;;3.13;2.30;;;11.80;76.70;;;;;;5074016;28;20623;-68
2022/09/18 06:28:57;;;;;;;4.77;2.10;;;11.90;66.80;;;;;;5073832;28;20177;-68
2022/09/18 06:31:23;;;;;;;2.83;2.30;;;12.10;63.30;;;;;;5073864;28;20222;-69
2022/09/18 06:33:49;;;;;;;3.57;2.20;;;12.30;49.30;;;;;;5073885;28;20261;-69
2022/09/18 06:36:15;;;;;;;3.27;2.03;;;12.40;46.70;;;;;;5072837;28;20177;-69
2022/09/18 06:38:41;;;;;;;3.53;2.30;;;12.70;40.10;;;;;;5073119;28;20213;-69
2022/09/18 06:41:07;;;;;;;4.07;2.30;;;12.80;30.60;;;;;;5073681;28;20180;-68
2022/09/18 06:43:34;;;;;;;3.60;2.27;;;12.80;27.50;;;;;;5073820;28;20180;-70
2022/09/18 06:45:59;;;;;;;3.70;2.30;;;13.10;20.90;;;;;;5073318;28;20628;-69
2022/09/18 06:48:28;;;;;;;3.00;1.97;;;13.40;9.20;;;;;;5073054;28;20260;-70
2022/09/18 06:50:55;;;;;;;3.30;1.97;;;13.80;1.00;;;;;;5073033;28;20181;-70
2022/09/18 06:53:21;;;;;;;5.23;2.33;;;14.20;1.00;;;;;;5073523;28;20287;-70
2022/09/18 06:55:47;;;;;;;6.67;2.00;;;14.60;1.00;;;;;;5073318;28;20256;-70
2022/09/18 06:58:17;;;;;;;2.90;2.10;;;15.00;1.00;;;;;;5072897;28;20204;-68
2022/09/18 07:00:43;;;;;;;2.60;1.90;;;15.20;1.00;;;;;;5073361;28;20218;-70
2022/09/18 07:03:10;;;;;;;3.37;2.40;;;15.40;1.00;;;;;;5073468;28;20181;-69
2022/09/18 07:05:40;;;;;;;5.83;2.10;;;15.60;1.00;;;;;;5071715;28;20223;-69
2022/09/18 07:08:06;;;;;;;3.33;2.00;;;16.00;1.00;;;;;;5073092;28;20181;-68
2022/09/18 07:10:32;;;;;;;4.20;2.50;;;16.20;1.00;;;;;;5072771;28;20246;-68
2022/09/18 07:12:59;;;;;;;3.13;2.23;;;16.10;1.00;;;;;;5073246;28;20204;-68
2022/09/18 07:15:25;;;;;;;3.80;2.80;;;16.10;1.00;;;;;;5072829;28;20212;-68
2022/09/18 07:17:54;;;;;;;4.87;2.10;;;16.00;1.00;;;;;;5072888;28;20221;-68
2022/09/18 07:20:19;;;;;;;3.53;2.30;;;15.80;1.00;;;;;;5072269;28;20161;-68
2022/09/18 07:22:56;;;;;;;3.37;2.20;;;15.80;1.00;;;;;;5072955;28;20177;-68
2022/09/18 07:25:22;;;;;;;3.83;2.10;;;15.70;1.00;;;;;;5072699;28;20281;-69
2022/09/18 07:27:48;;;;;;;3.50;1.90;;;15.50;1.00;;;;;;5072986;28;20207;-69
2022/09/18 07:30:15;;;;;;;3.70;2.13;;;15.50;1.00;;;;;;5072036;28;20160;-69
2022/09/18 07:32:41;;;;;;;4.07;2.27;;;15.50;1.00;;;;;;5073256;28;20208;-70
2022/09/18 07:35:07;;;;;;;3.90;2.27;;;15.30;1.00;;;;;;5072314;28;20192;-69
2022/09/18 07:37:33;;;;;;;3.97;2.50;;;15.30;1.00;;;;;;5072896;28;20179;-70
2022/09/18 07:39:59;;;;;;;6.53;2.33;;;15.00;1.00;;;;;;5072533;28;20569;-69
2022/09/18 07:42:25;;;;;;;4.07;2.33;;;15.20;1.00;;;;;;5072452;28;20255;-69
2022/09/18 07:44:51;;;;;;;5.43;2.20;;;15.40;1.00;;;;;;5072212;28;20621;-70
2022/09/18 07:47:17;;;;;;;4.30;2.20;;;15.30;1.00;;;;;;5072546;28;20166;-70
2022/09/18 07:49:42;;;;;;;4.47;2.27;;;15.30;1.00;;;;;;5072296;28;20173;-69
2022/09/18 07:52:08;;;;;;;35.13;25.37;;;15.30;1.00;;;;;;5072609;28;20585;-70
2022/09/18 07:54:34;;;;;;;3.40;2.57;;;15.40;1.00;;;;;;5072507;28;20175;-69
2022/09/18 07:57:01;;;;;;;2.63;1.90;;;15.50;1.00;;;;;;5072588;28;20173;-70
2022/09/18 07:59:27;;;;;;;3.90;2.23;;;15.60;1.00;;;;;;5071975;28;20192;-71
2022/09/18 08:01:54;;;;;;;5.70;2.47;;;15.60;1.00;;;;;;5072362;28;20176;-69
2022/09/18 08:04:21;;;;;;;3.67;2.00;;;15.70;1.00;;;;;;5072030;28;20200;-70
2022/09/18 08:06:50;;;;;;;6.00;2.40;;;15.80;1.00;;;;;;5071631;28;20578;-70
2022/09/18 08:09:16;;;;;;;7.97;2.20;;;16.00;1.00;;;;;;5072562;28;20169;-70
2022/09/18 08:11:42;;;;;;;4.50;2.58;;;16.00;1.00;;;;;;5071622;28;20215;-70
2022/09/18 08:14:07;;;;;;;5.70;2.40;;;16.30;1.00;;;;;;5072132;28;20209;-70
2022/09/18 08:16:33;;;;;;;2.97;2.40;;;16.30;1.00;;;;;;5072204;28;20259;-70
2022/09/18 08:18:58;;;;;;;5.13;2.30;;;16.20;1.00;;;;;;5071899;28;20640;-70
2022/09/18 08:21:24;;;;;;;4.53;2.50;;;16.30;1.00;;;;;;5072245;28;20290;-70
2022/09/18 08:23:50;;;;;;;5.73;2.60;;;16.20;1.00;;;;;;5072370;28;20173;-71
2022/09/18 08:26:16;;;;;;;2.90;2.20;;;15.80;1.00;;;;;;5071949;28;20226;-71
2022/09/18 08:28:42;;;;;;;3.97;2.40;;;15.70;1.00;;;;;;5072241;28;20204;-70
2022/09/18 08:31:08;;;;;;;5.33;2.37;;;15.80;1.00;;;;;;5071869;28;20234;-71
2022/09/18 08:33:33;;;;;;;4.30;2.40;;;15.80;1.00;;;;;;5072208;28;20216;-70
2022/09/18 08:35:59;;;;;;;2.53;2.17;;;15.70;1.00;;;;;;5072136;28;20687;-72
2022/09/18 08:38:24;;;;;;;3.70;2.20;;;15.90;1.00;;;;;;5071823;28;20559;-72
2022/09/18 08:40:59;;;;;;;2.63;2.40;;;16.00;1.00;;;;;;5073677;28;20185;-71
2022/09/18 08:43:37;;;;;;;4.20;2.57;;;16.00;1.00;;;;;;5075401;28;20168;-70
2022/09/18 08:46:34;;;;;;;4.53;2.37;;;16.00;1.00;;;;;;5075562;28;20191;-71
2022/09/18 08:49:15;;;;;;;6.27;2.50;;;16.00;1.00;;;;;;5074954;28;20654;-71
2022/09/18 08:51:51;;;;;;;4.30;2.63;;;16.00;1.00;;;;;;5075568;28;20179;-71
2022/09/18 08:54:38;;;;;;;5.07;2.30;;;16.20;1.00;;;;;;5075215;28;20176;-70
2022/09/18 08:57:12;;;;;;;6.10;2.15;;;16.30;1.00;;;;;;5075534;28;20247;-69
2022/09/18 08:59:45;;;;;;;5.90;2.00;;;16.30;1.00;;;;;;5075500;28;20183;-70
2022/09/18 09:02:32;;;;;;;2.67;1.87;;;16.40;1.00;;;;;;5075102;28;20172;-70
2022/09/18 09:05:02;;;;;;;6.60;2.60;;;17.00;1.00;;;;;;5075046;28;20172;-71
2022/09/18 09:07:37;;;;;;;3.60;2.00;;;17.30;1.00;;;;;;5075255;28;20680;-71
2022/09/18 09:10:36;;;;;;;4.53;2.00;;;17.50;1.00;;;;;;5075307;28;20218;-70
2022/09/18 09:13:28;;;;;;;5.60;2.20;;;17.50;1.00;;;;;;5074731;28;20204;-71
2022/09/18 09:16:14;;;;;;;3.10;1.88;;;17.70;1.00;;;;;;5074741;28;20248;-71
2022/09/18 09:18:59;;;;;;;4.57;2.20;;;17.80;1.00;;;;;;5075369;28;20251;-71
2022/09/18 09:22:02;;;;;;;4.20;1.60;;;17.30;1.00;;;;;;5074813;28;20211;-72
2022/09/18 09:24:52;;;;;;;3.65;1.90;;;17.20;1.00;;;;;;5074767;28;20268;-72
2022/09/18 09:27:33;;;;;;;2.33;2.13;;;17.50;1.00;;;;;;5075222;28;20168;-70
2022/09/18 09:30:19;;;;;;;7.07;2.00;;;17.50;1.00;;;;;;5075237;28;20183;-71
2022/09/18 09:33:01;;;;;;;2.92;1.83;;;17.70;1.00;;;;;;5074695;28;20236;-71
2022/09/18 09:35:34;;;;;;;4.93;2.33;;;17.80;1.00;;;;;;5074629;28;20184;-71
2022/09/18 09:38:05;;;;;;;3.90;1.90;;;17.60;1.00;;;;;;5074661;28;20172;-70
2022/09/18 09:40:42;;;;;;;4.40;2.15;;;17.50;1.00;;;;;;5074595;28;20160;-70
2022/09/18 09:43:22;;;;;;;3.58;1.90;;;16.70;1.00;;;;;;5074652;28;20628;-72
2022/09/18 09:45:51;;;;;;;4.15;1.90;;;16.90;1.00;;;;;;5074105;28;20187;-72
2022/09/18 09:49:01;;;;;;;2.17;1.80;;;17.40;1.00;;;;;;5074520;28;20172;-72
2022/09/18 09:51:51;;;;;;;3.35;2.00;;;17.70;1.00;;;;;;5031941;28;20185;-73
2022/09/18 09:54:17;;;;;;;2.08;1.80;;;18.00;1.00;;;;;;5032052;28;20653;-72
2022/09/18 09:57:07;;;;;;;2.38;1.88;;;18.30;1.00;;;;;;5032457;28;20217;-72
2022/09/18 09:59:56;;;;;;;2.83;1.80;;;17.90;1.00;;;;;;5030942;28;20276;-71
2022/09/18 10:02:59;;;;;;;2.95;1.98;;;18.10;1.00;;;;;;5032359;28;20200;-73
2022/09/18 10:05:28;;;;;;;3.83;2.20;;;18.10;1.00;;;;;;5031702;28;20181;-72
2022/09/18 10:08:20;;;;;;;2.95;1.50;;;18.30;1.00;;;;;;5032502;28;20201;-72
2022/09/18 10:10:54;;;;;;;3.42;2.00;;;18.60;1.00;;;;;;5032106;28;20206;-72
2022/09/18 10:13:54;;;;;;;2.58;1.70;;;19.40;1.00;;;;;;5031178;28;20217;-72
2022/09/18 10:16:47;;;;;;;3.20;1.80;;;20.40;1.00;;;;;;5022901;28;20708;-73
2022/09/18 10:19:17;;;;;;;2.60;1.60;;;20.50;1.00;;;;;;5010525;28;20273;-73
2022/09/18 10:21:48;;;;;;;2.08;1.70;;;20.30;1.00;;;;;;5011718;28;20178;-75
2022/09/18 10:24:32;;;;;;;1.92;1.70;;;20.60;1.00;;;;;;5012127;28;20249;-73
2022/09/18 10:27:08;;;;;;;3.63;1.60;;;19.80;1.00;;;;;;5015030;28;20260;-73
2022/09/18 10:29:33;;;;;;;2.53;1.70;;;20.10;99.90;;;;;;5033317;28;20165;-73
2022/09/18 10:32:00;;;;;;;2.25;1.70;;;19.50;99.90;;;;;;5033523;28;20704;-72
2022/09/18 10:34:48;;;;;;;2.78;1.60;;;19.70;99.90;;;;;;5033922;28;20174;-71
2022/09/18 10:37:27;;;;;;;5.40;2.00;;;19.80;1.00;;;;;;5033604;28;20174;-73
2022/09/18 10:39:56;;;;;;;5.88;1.83;;;19.60;99.90;;;;;;5033516;28;20169;-73
2022/09/18 10:42:25;;;;;;;6.07;1.95;;;19.70;99.90;;;;;;5033901;28;20181;-73
2022/09/18 10:44:53;;;;;;;2.53;1.70;;;19.90;99.90;;;;;;5032753;28;20253;-74
2022/09/18 10:47:27;;;;;;;4.07;1.80;;;19.70;1.00;;;;;;5033333;28;20174;-71
2022/09/18 10:50:08;;;;;;;2.03;1.52;;;19.40;1.00;;;;;;5033341;28;20178;-73
2022/09/18 10:52:46;;;;;;;3.35;1.85;;;19.40;41.30;;;;;;5033020;28;20201;-71
2022/09/18 10:55:13;;;;;;;3.20;1.67;;;19.40;1.00;;;;;;5033496;28;20280;-74
2022/09/18 10:57:57;;;;;;;3.10;1.90;;;19.70;1.00;;;;;;5032636;28;20174;-73
2022/09/18 11:00:28;;;;;;;3.38;2.00;;;20.00;99.90;;;;;;5033042;28;20249;-73
2022/09/18 11:03:04;;;;;;;3.72;1.95;;;19.50;1.00;;;;;;5033150;28;20514;-73
2022/09/18 11:05:36;;;;;;;1.88;1.70;;;19.30;1.00;;;;;;5033059;28;20259;-72
2022/09/18 11:08:15;;;;;;;2.40;1.90;;;18.90;1.00;;;;;;5033174;28;20170;-72
2022/09/18 11:10:47;;;;;;;1.80;1.70;;;18.70;9.10;;;;;;5032962;28;20162;-73
2022/09/18 11:13:25;;;;;;;3.30;1.90;;;18.70;99.90;;;;;;5032791;28;20214;-72
2022/09/18 11:15:55;;;;;;;2.03;1.60;;;18.50;99.90;;;;;;5037875;28;20174;-73
2022/09/18 11:18:23;;;;;;;5.18;2.17;;;18.50;99.90;;;;;;5073166;28;20173;-71
2022/09/18 11:20:50;;;;;;;2.25;1.70;;;18.40;99.90;;;;;;5072317;28;20181;-72
2022/09/18 11:23:34;;;;;;;2.30;1.65;;;18.50;1.00;;;;;;5071967;28;20179;-72
2022/09/18 11:26:18;;;;;;;2.50;1.70;;;19.20;1.00;;;;;;5071381;28;20165;-72
2022/09/18 11:29:15;;;;;;;3.33;1.70;;;20.00;99.90;;;;;;5072927;28;20165;-71
2022/09/18 11:31:53;;;;;;;2.03;1.70;;;20.50;1.00;;;;;;5072593;28;20175;-72
2022/09/18 11:34:34;;;;;;;2.00;1.48;;;20.40;99.90;;;;;;5072767;28;20297;-72
2022/09/18 11:37:05;;;;;;;1.95;1.60;;;21.10;99.90;;;;;;5072770;28;20632;-74
2022/09/18 11:39:42;;;;;;;1.40;1.30;;;21.20;1.00;;;;;;5072981;28;20535;-73
2022/09/18 11:42:15;;;;;;;2.22;1.50;;;20.70;99.90;;;;;;5072014;28;20525;-73
2022/09/18 11:44:41;;;;;;;1.50;1.40;;;20.20;1.00;;;;;;5071935;28;20192;-74
2022/09/18 11:47:22;;;;;;;2.72;1.60;;;19.80;99.90;;;;;;5072621;28;20215;-72
2022/09/18 11:49:50;;;;;;;1.67;1.52;;;19.40;99.90;;;;;;5071702;28;20251;-71
2022/09/18 11:52:22;;;;;;;2.20;1.50;;;18.90;99.90;;;;;;5072367;28;20262;-72
2022/09/18 11:54:54;;;;;;;1.42;1.30;;;18.70;99.90;;;;;;5071897;28;20663;-71
2022/09/18 11:57:40;;;;;;;3.42;1.30;;;18.50;24.50;;;;;;5071602;28;20183;-71
2022/09/18 12:00:13;;;;;;;2.63;1.60;;;18.20;99.90;;;;;;5072279;28;20368;-72
2022/09/18 12:03:07;;;;;;;2.00;1.20;;;18.00;99.90;;;;;;5071684;28;20636;-72
2022/09/18 12:05:35;;;;;;;3.67;1.30;;;18.30;99.90;;;;;;5072260;28;20191;-71
2022/09/18 12:08:35;;;;;;;3.13;1.35;;;18.30;1.00;;;;;;5072329;28;20222;-71
2022/09/18 12:11:13;;;;;;;1.50;1.10;;;18.60;1.00;;;;;;5071481;28;20176;-71
2022/09/18 12:13:48;;;;;;;1.73;1.08;;;18.70;26.90;;;;;;5071449;28;20204;-71
2022/09/18 12:16:41;;;;;;;2.05;1.00;;;18.70;99.90;;;;;;5074140;28;20215;-70
2022/09/18 12:19:35;;;;;;;1.23;1.05;;;18.80;89.20;;;;;;5076072;28;20214;-72
2022/09/18 12:22:21;;;;;;;4.35;1.40;;;19.00;99.90;;;;;;5034143;28;20642;-72
2022/09/18 12:24:47;;;;;;;1.20;1.10;;;19.20;1.00;;;;;;5033348;28;20212;-72
2022/09/18 12:27:36;;;;;;;1.85;0.95;;;19.40;1.00;;;;;;5033616;28;20185;-71
2022/09/18 12:30:06;;;;;;;1.58;1.00;;;19.50;99.90;;;;;;5034208;28;20174;-72
2022/09/18 12:32:50;;;;;;;2.22;1.10;;;19.60;26.20;;;;;;5034006;28;20232;-72
2022/09/18 12:35:30;;;;;;;0.90;0.80;;;19.80;1.00;;;;;;5033513;28;20173;-73
2022/09/18 12:38:33;;;;;;;1.90;1.00;;;20.00;98.20;;;;;;5033430;28;20197;-72
2022/09/18 12:41:00;;;;;;;0.90;0.80;;;19.40;1.00;;;;;;5032926;28;20664;-74
2022/09/18 12:44:21;;;;;;;1.52;0.93;;;18.80;1.00;;;;;;5033046;28;20174;-72
2022/09/18 12:47:14;;;;;;;1.00;0.90;;;18.30;1.00;;;;;;4994407;28;20198;-72
2022/09/18 12:50:00;;;;;;;1.23;1.00;;;18.00;1.00;;;;;;4994007;28;20189;-73
2022/09/18 12:52:32;;;;;;;1.38;1.00;;;18.00;1.00;;;;;;4993870;28;20203;-72
2022/09/18 12:55:17;;;;;;;2.03;0.98;;;18.10;1.00;;;;;;4993507;28;20179;-73
2022/09/18 12:58:09;;;;;;;1.95;0.85;;;18.30;1.00;;;;;;4997239;28;20742;-72
2022/09/18 13:00:37;;;;;;;1.33;1.00;;;18.50;99.90;;;;;;5052625;28;20185;-72
2022/09/18 13:03:30;;;;;;;2.08;1.00;;;18.90;99.90;;;;;;5052554;28;20177;-72
2022/09/18 13:06:14;;;;;;;2.05;1.00;;;19.20;99.90;;;;;;5053005;28;20173;-71
2022/09/18 13:09:01;;;;;;;1.40;0.95;;;19.40;1.00;;;;;;5052243;28;20192;-71
2022/09/18 13:11:36;;;;;;;1.35;0.90;;;19.30;99.90;;;;;;5053147;28;20210;-72
2022/09/18 13:14:09;;;;;;;1.95;1.10;;;18.90;1.00;;;;;;5052219;28;20735;-72
2022/09/18 13:16:44;;;;;;;0.98;0.80;;;18.40;99.90;;;;;;5054540;28;20255;-72
2022/09/18 13:19:24;;;;;;;0.90;0.90;;;18.30;71.10;;;;;;5074852;28;20176;-72